sensor_id;sensor_type;location;lat;lon;timestamp;pressure;altitude;pressure_sealevel;temperature;humidity
71666;BME280;59503;53.486;10.196;2023-04-07T00:01:02;101851.25;;;4.69;63.84
71666;BME280;59503;53.486;10.196;2023-04-07T00:03:27;101862.09;;;4.64;64.10
71666;BME280;59503;53.486;10.196;2023-04-07T00:05:53;101853.94;;;4.69;63.38
71666;BME280;59503;53.486;10.196;2023-04-07T00:08:18;101853.81;;;4.60;64.87
71666;BME280;59503;53.486;10.196;2023-04-07T00:10:44;101855.50;;;4.56;64.74
71666;BME280;59503;53.486;10.196;2023-04-07T00:13:10;101851.28;;;4.50;65.51
71666;BME280;59503;53.486;10.196;2023-04-07T00:15:35;101863.44;;;4.48;65.28
71666;BME280;59503;53.486;10.196;2023-04-07T00:18:00;101861.78;;;4.52;64.79
71666;BME280;59503;53.486;10.196;2023-04-07T00:20:26;101863.66;;;4.51;64.94
71666;BME280;59503;53.486;10.196;2023-04-07T00:22:51;101850.81;;;4.48;65.18
71666;BME280;59503;53.486;10.196;2023-04-07T00:25:17;101854.44;;;4.39;65.61
71666;BME280;59503;53.486;10.196;2023-04-07T00:27:43;101853.94;;;4.37;65.77
71666;BME280;59503;53.486;10.196;2023-04-07T00:30:09;101853.13;;;4.36;66.18
71666;BME280;59503;53.486;10.196;2023-04-07T00:32:34;101855.09;;;4.31;66.10
71666;BME280;59503;53.486;10.196;2023-04-07T00:35:00;101860.47;;;4.31;66.25
71666;BME280;59503;53.486;10.196;2023-04-07T00:37:25;101850.81;;;4.30;66.44
71666;BME280;59503;53.486;10.196;2023-04-07T00:39:51;101858.25;;;4.19;67.15
71666;BME280;59503;53.486;10.196;2023-04-07T00:42:17;101852.34;;;4.17;67.41
71666;BME280;59503;53.486;10.196;2023-04-07T00:44:42;101857.00;;;4.12;67.37
71666;BME280;59503;53.486;10.196;2023-04-07T00:47:08;101844.34;;;4.12;67.77
71666;BME280;59503;53.486;10.196;2023-04-07T00:49:36;101850.75;;;4.16;67.14
71666;BME280;59503;53.486;10.196;2023-04-07T00:52:02;101850.03;;;4.11;67.42
71666;BME280;59503;53.486;10.196;2023-04-07T00:54:29;101848.22;;;4.06;67.42
71666;BME280;59503;53.486;10.196;2023-04-07T00:56:55;101849.81;;;4.07;67.52
71666;BME280;59503;53.486;10.196;2023-04-07T00:59:22;101853.97;;;4.00;67.87
71666;BME280;59503;53.486;10.196;2023-04-07T01:02:06;101852.94;;;3.96;68.24
71666;BME280;59503;53.486;10.196;2023-04-07T01:07:08;101847.47;;;4.01;68.23
71666;BME280;59503;53.486;10.196;2023-04-07T01:09:45;101853.75;;;3.96;67.71
71666;BME280;59503;53.486;10.196;2023-04-07T01:12:25;101848.81;;;4.03;67.45
71666;BME280;59503;53.486;10.196;2023-04-07T01:14:58;101850.81;;;3.93;68.18
71666;BME280;59503;53.486;10.196;2023-04-07T01:17:25;101847.03;;;3.94;67.65
71666;BME280;59503;53.486;10.196;2023-04-07T01:20:00;101846.75;;;3.95;67.33
71666;BME280;59503;53.486;10.196;2023-04-07T01:22:40;101849.84;;;3.83;68.48
71666;BME280;59503;53.486;10.196;2023-04-07T01:30:14;101843.28;;;3.52;71.31
71666;BME280;59503;53.486;10.196;2023-04-07T01:32:42;101843.63;;;3.46;71.37
71666;BME280;59503;53.486;10.196;2023-04-07T01:35:12;101846.63;;;3.44;71.49
71666;BME280;59503;53.486;10.196;2023-04-07T01:37:38;101840.19;;;3.40;71.50
71666;BME280;59503;53.486;10.196;2023-04-07T01:40:06;101839.84;;;3.23;73.02
71666;BME280;59503;53.486;10.196;2023-04-07T01:42:33;101841.00;;;3.17;73.32
71666;BME280;59503;53.486;10.196;2023-04-07T01:44:59;101843.19;;;3.15;73.67
71666;BME280;59503;53.486;10.196;2023-04-07T01:47:27;101852.59;;;3.13;73.53
71666;BME280;59503;53.486;10.196;2023-04-07T01:49:58;101848.38;;;3.07;74.25
71666;BME280;59503;53.486;10.196;2023-04-07T01:52:26;101842.94;;;3.12;73.61
71666;BME280;59503;53.486;10.196;2023-04-07T01:54:53;101839.44;;;3.11;73.92
71666;BME280;59503;53.486;10.196;2023-04-07T01:57:19;101847.28;;;3.08;74.39
71666;BME280;59503;53.486;10.196;2023-04-07T01:59:44;101843.81;;;3.07;73.41
71666;BME280;59503;53.486;10.196;2023-04-07T02:02:09;101840.38;;;3.02;73.35
71666;BME280;59503;53.486;10.196;2023-04-07T02:04:56;101833.91;;;3.03;74.04
71666;BME280;59503;53.486;10.196;2023-04-07T02:07:31;101856.19;;;3.03;73.97
71666;BME280;59503;53.486;10.196;2023-04-07T02:10:02;101849.22;;;3.02;74.23
71666;BME280;59503;53.486;10.196;2023-04-07T02:12:31;101850.81;;;3.03;74.12
71666;BME280;59503;53.486;10.196;2023-04-07T02:14:57;101852.94;;;3.06;73.24
71666;BME280;59503;53.486;10.196;2023-04-07T02:17:24;101848.13;;;3.03;73.75
71666;BME280;59503;53.486;10.196;2023-04-07T02:19:52;101857.84;;;2.99;74.64
71666;BME280;59503;53.486;10.196;2023-04-07T02:22:18;101856.00;;;2.95;74.38
71666;BME280;59503;53.486;10.196;2023-04-07T02:24:43;101857.66;;;2.91;74.58
71666;BME280;59503;53.486;10.196;2023-04-07T02:27:09;101853.59;;;2.93;74.47
71666;BME280;59503;53.486;10.196;2023-04-07T02:29:34;101844.97;;;2.96;74.40
71666;BME280;59503;53.486;10.196;2023-04-07T02:32:00;101863.50;;;2.98;74.72
71666;BME280;59503;53.486;10.196;2023-04-07T02:34:25;101850.97;;;2.88;74.54
71666;BME280;59503;53.486;10.196;2023-04-07T02:36:51;101853.13;;;2.86;74.80
71666;BME280;59503;53.486;10.196;2023-04-07T02:39:17;101855.00;;;2.86;74.77
71666;BME280;59503;53.486;10.196;2023-04-07T02:41:42;101859.13;;;2.78;75.27
71666;BME280;59503;53.486;10.196;2023-04-07T02:44:07;101851.63;;;2.75;75.32
71666;BME280;59503;53.486;10.196;2023-04-07T02:46:33;101846.03;;;2.72;75.06
71666;BME280;59503;53.486;10.196;2023-04-07T02:48:59;101858.34;;;2.73;74.70
71666;BME280;59503;53.486;10.196;2023-04-07T02:51:24;101851.09;;;2.73;75.05
71666;BME280;59503;53.486;10.196;2023-04-07T02:53:51;101854.88;;;2.72;74.94
71666;BME280;59503;53.486;10.196;2023-04-07T02:56:16;101856.72;;;2.77;75.01
71666;BME280;59503;53.486;10.196;2023-04-07T02:58:42;101862.03;;;2.82;74.66
71666;BME280;59503;53.486;10.196;2023-04-07T03:01:07;101863.91;;;2.81;73.62
71666;BME280;59503;53.486;10.196;2023-04-07T03:03:32;101844.25;;;2.62;74.93
71666;BME280;59503;53.486;10.196;2023-04-07T03:05:58;101859.16;;;2.73;74.02
71666;BME280;59503;53.486;10.196;2023-04-07T03:08:23;101862.66;;;2.74;73.86
71666;BME280;59503;53.486;10.196;2023-04-07T03:10:48;101856.19;;;2.75;73.69
71666;BME280;59503;53.486;10.196;2023-04-07T03:13:14;101869.03;;;2.78;72.69
71666;BME280;59503;53.486;10.196;2023-04-07T03:15:44;101862.66;;;2.74;73.14
71666;BME280;59503;53.486;10.196;2023-04-07T03:18:09;101863.72;;;2.73;73.41
71666;BME280;59503;53.486;10.196;2023-04-07T03:20:36;101859.16;;;2.73;73.21
71666;BME280;59503;53.486;10.196;2023-04-07T03:23:02;101867.78;;;2.70;72.88
71666;BME280;59503;53.486;10.196;2023-04-07T03:25:27;101863.78;;;2.68;73.92
71666;BME280;59503;53.486;10.196;2023-04-07T03:27:52;101861.38;;;2.66;73.09
71666;BME280;59503;53.486;10.196;2023-04-07T03:30:18;101870.50;;;2.65;73.67
71666;BME280;59503;53.486;10.196;2023-04-07T03:32:43;101874.53;;;2.63;73.75
71666;BME280;59503;53.486;10.196;2023-04-07T03:35:09;101869.91;;;2.73;72.94
71666;BME280;59503;53.486;10.196;2023-04-07T03:37:34;101878.25;;;2.72;72.79
71666;BME280;59503;53.486;10.196;2023-04-07T03:40:00;101868.66;;;2.61;74.03
71666;BME280;59503;53.486;10.196;2023-04-07T03:42:26;101879.63;;;2.64;73.07
71666;BME280;59503;53.486;10.196;2023-04-07T03:44:51;101882.91;;;2.56;73.34
71666;BME280;59503;53.486;10.196;2023-04-07T03:47:17;101886.94;;;2.59;73.11
71666;BME280;59503;53.486;10.196;2023-04-07T03:49:42;101875.69;;;2.57;73.59
71666;BME280;59503;53.486;10.196;2023-04-07T03:52:08;101874.13;;;2.45;74.39
71666;BME280;59503;53.486;10.196;2023-04-07T03:54:34;101889.91;;;2.57;73.29
71666;BME280;59503;53.486;10.196;2023-04-07T03:57:00;101894.47;;;2.57;73.92
71666;BME280;59503;53.486;10.196;2023-04-07T03:59:26;101890.69;;;2.58;73.24
71666;BME280;59503;53.486;10.196;2023-04-07T04:01:52;101885.84;;;2.60;73.25
71666;BME280;59503;53.486;10.196;2023-04-07T04:04:17;101896.88;;;2.58;73.32
71666;BME280;59503;53.486;10.196;2023-04-07T04:06:42;101899.56;;;2.58;73.33
71666;BME280;59503;53.486;10.196;2023-04-07T04:09:08;101896.13;;;2.47;73.96
71666;BME280;59503;53.486;10.196;2023-04-07T04:11:33;101897.44;;;2.55;73.00
71666;BME280;59503;53.486;10.196;2023-04-07T04:13:58;101903.09;;;2.53;73.27
71666;BME280;59503;53.486;10.196;2023-04-07T04:16:24;101908.25;;;2.45;74.14
71666;BME280;59503;53.486;10.196;2023-04-07T04:18:49;101908.78;;;2.42;74.06
71666;BME280;59503;53.486;10.196;2023-04-07T04:21:15;101909.88;;;2.41;73.66
71666;BME280;59503;53.486;10.196;2023-04-07T04:23:40;101902.34;;;2.43;74.27
71666;BME280;59503;53.486;10.196;2023-04-07T04:26:06;101907.44;;;2.44;72.92
71666;BME280;59503;53.486;10.196;2023-04-07T04:28:31;101903.38;;;2.47;73.25
71666;BME280;59503;53.486;10.196;2023-04-07T04:30:56;101908.97;;;2.50;73.20
71666;BME280;59503;53.486;10.196;2023-04-07T04:33:23;101912.56;;;2.41;73.76
71666;BME280;59503;53.486;10.196;2023-04-07T04:35:48;101919.22;;;2.48;72.95
71666;BME280;59503;53.486;10.196;2023-04-07T04:38:15;101916.56;;;2.43;73.22
71666;BME280;59503;53.486;10.196;2023-04-07T04:40:41;101907.19;;;2.41;72.82
71666;BME280;59503;53.486;10.196;2023-04-07T04:43:06;101914.91;;;2.47;72.70
71666;BME280;59503;53.486;10.196;2023-04-07T04:45:33;101919.97;;;2.54;72.27
71666;BME280;59503;53.486;10.196;2023-04-07T04:47:59;101935.00;;;2.55;71.75
71666;BME280;59503;53.486;10.196;2023-04-07T04:50:24;101927.25;;;2.53;71.79
71666;BME280;59503;53.486;10.196;2023-04-07T04:52:49;101936.31;;;2.58;71.67
71666;BME280;59503;53.486;10.196;2023-04-07T04:55:15;101933.38;;;2.54;71.67
71666;BME280;59503;53.486;10.196;2023-04-07T04:57:40;101941.44;;;2.54;72.28
71666;BME280;59503;53.486;10.196;2023-04-07T05:00:06;101943.59;;;2.52;72.37
71666;BME280;59503;53.486;10.196;2023-04-07T05:02:32;101928.91;;;2.44;73.33
71666;BME280;59503;53.486;10.196;2023-04-07T05:04:57;101946.31;;;2.47;72.71
71666;BME280;59503;53.486;10.196;2023-04-07T05:07:23;101940.94;;;2.47;72.89
71666;BME280;59503;53.486;10.196;2023-04-07T05:09:48;101942.03;;;2.46;73.07
71666;BME280;59503;53.486;10.196;2023-04-07T05:12:14;101945.25;;;2.48;73.13
71666;BME280;59503;53.486;10.196;2023-04-07T05:14:40;101951.94;;;2.45;73.35
71666;BME280;59503;53.486;10.196;2023-04-07T05:17:05;101952.22;;;2.44;73.81
71666;BME280;59503;53.486;10.196;2023-04-07T05:19:30;101957.53;;;2.54;73.49
71666;BME280;59503;53.486;10.196;2023-04-07T05:21:57;101954.06;;;2.53;73.09
71666;BME280;59503;53.486;10.196;2023-04-07T05:24:25;101958.56;;;2.63;72.18
71666;BME280;59503;53.486;10.196;2023-04-07T05:26:51;101949.16;;;2.61;71.97
71666;BME280;59503;53.486;10.196;2023-04-07T05:29:17;101956.66;;;2.69;71.92
71666;BME280;59503;53.486;10.196;2023-04-07T05:31:42;101966.25;;;2.75;71.83
71666;BME280;59503;53.486;10.196;2023-04-07T05:34:07;101962.19;;;2.82;70.84
71666;BME280;59503;53.486;10.196;2023-04-07T05:36:34;101969.66;;;2.90;70.32
71666;BME280;59503;53.486;10.196;2023-04-07T05:38:59;101959.44;;;2.92;70.31
71666;BME280;59503;53.486;10.196;2023-04-07T05:41:25;101964.75;;;2.97;69.99
71666;BME280;59503;53.486;10.196;2023-04-07T05:43:50;101968.19;;;3.03;69.82
71666;BME280;59503;53.486;10.196;2023-04-07T05:46:15;101969.47;;;3.10;69.56
71666;BME280;59503;53.486;10.196;2023-04-07T05:48:41;101980.94;;;3.21;68.16
71666;BME280;59503;53.486;10.196;2023-04-07T05:51:06;101971.34;;;3.38;67.76
71666;BME280;59503;53.486;10.196;2023-04-07T05:53:31;101979.28;;;3.53;65.88
71666;BME280;59503;53.486;10.196;2023-04-07T05:55:57;101981.03;;;3.63;66.32
71666;BME280;59503;53.486;10.196;2023-04-07T05:58:23;101983.56;;;3.78;65.05
71666;BME280;59503;53.486;10.196;2023-04-07T06:00:49;101988.00;;;3.93;64.34
71666;BME280;59503;53.486;10.196;2023-04-07T06:03:14;101984.72;;;3.96;63.88
71666;BME280;59503;53.486;10.196;2023-04-07T06:05:40;101989.94;;;4.11;63.00
71666;BME280;59503;53.486;10.196;2023-04-07T06:08:08;102002.38;;;4.25;62.56
71666;BME280;59503;53.486;10.196;2023-04-07T06:10:35;101997.16;;;4.34;62.18
71666;BME280;59503;53.486;10.196;2023-04-07T06:13:00;101991.09;;;4.47;61.54
71666;BME280;59503;53.486;10.196;2023-04-07T06:15:26;102003.44;;;4.66;61.29
71666;BME280;59503;53.486;10.196;2023-04-07T06:17:51;101999.22;;;4.79;60.50
71666;BME280;59503;53.486;10.196;2023-04-07T06:20:17;101999.50;;;4.96;59.52
71666;BME280;59503;53.486;10.196;2023-04-07T06:22:44;102008.53;;;5.05;58.87
71666;BME280;59503;53.486;10.196;2023-04-07T06:25:09;102011.34;;;5.14;58.55
71666;BME280;59503;53.486;10.196;2023-04-07T06:27:35;102013.22;;;5.13;58.24
71666;BME280;59503;53.486;10.196;2023-04-07T06:30:00;102015.91;;;5.32;58.03
71666;BME280;59503;53.486;10.196;2023-04-07T06:32:25;102008.53;;;5.37;57.57
71666;BME280;59503;53.486;10.196;2023-04-07T06:34:51;102018.13;;;5.43;57.47
71666;BME280;59503;53.486;10.196;2023-04-07T06:37:16;102020.72;;;5.48;57.71
71666;BME280;59503;53.486;10.196;2023-04-07T06:39:42;102027.16;;;5.66;57.22
71666;BME280;59503;53.486;10.196;2023-04-07T06:42:07;102030.75;;;5.75;57.03
71666;BME280;59503;53.486;10.196;2023-04-07T06:44:33;102028.72;;;5.85;56.13
71666;BME280;59503;53.486;10.196;2023-04-07T06:46:58;102041.31;;;5.90;55.81
71666;BME280;59503;53.486;10.196;2023-04-07T06:49:24;102036.44;;;6.05;55.22
71666;BME280;59503;53.486;10.196;2023-04-07T06:51:49;102041.81;;;6.05;55.50
71666;BME280;59503;53.486;10.196;2023-04-07T06:54:14;102033.63;;;6.10;54.74
71666;BME280;59503;53.486;10.196;2023-04-07T06:56:41;102035.25;;;6.11;55.20
71666;BME280;59503;53.486;10.196;2023-04-07T06:59:07;102037.66;;;6.26;54.43
71666;BME280;59503;53.486;10.196;2023-04-07T07:01:32;102042.44;;;6.29;54.95
71666;BME280;59503;53.486;10.196;2023-04-07T07:03:58;102040.91;;;6.37;53.98
71666;BME280;59503;53.486;10.196;2023-04-07T07:06:25;102048.34;;;6.32;54.60
71666;BME280;59503;53.486;10.196;2023-04-07T07:08:51;102041.09;;;6.41;53.53
71666;BME280;59503;53.486;10.196;2023-04-07T07:11:17;102043.69;;;6.59;53.81
71666;BME280;59503;53.486;10.196;2023-04-07T07:13:42;102044.66;;;6.77;52.78
71666;BME280;59503;53.486;10.196;2023-04-07T07:16:09;102048.91;;;6.91;52.69
71666;BME280;59503;53.486;10.196;2023-04-07T07:18:35;102047.28;;;7.04;52.11
71666;BME280;59503;53.486;10.196;2023-04-07T07:21:01;102048.13;;;7.13;52.32
71666;BME280;59503;53.486;10.196;2023-04-07T07:23:26;102049.13;;;7.17;51.99
71666;BME280;59503;53.486;10.196;2023-04-07T07:25:52;102042.00;;;7.21;51.75
71666;BME280;59503;53.486;10.196;2023-04-07T07:28:17;102043.78;;;7.25;52.12
71666;BME280;59503;53.486;10.196;2023-04-07T07:30:43;102037.06;;;7.45;51.52
71666;BME280;59503;53.486;10.196;2023-04-07T07:33:08;102038.00;;;7.63;51.24
71666;BME280;59503;53.486;10.196;2023-04-07T07:35:34;102059.63;;;7.93;50.31
71666;BME280;59503;53.486;10.196;2023-04-07T07:37:59;102054.25;;;8.02;49.47
71666;BME280;59503;53.486;10.196;2023-04-07T07:40:25;102057.56;;;8.29;49.35
71666;BME280;59503;53.486;10.196;2023-04-07T07:42:51;102054.66;;;8.65;48.08
71666;BME280;59503;53.486;10.196;2023-04-07T07:45:16;102059.69;;;8.41;47.53
71666;BME280;59503;53.486;10.196;2023-04-07T07:47:43;102068.28;;;8.34;48.29
71666;BME280;59503;53.486;10.196;2023-04-07T07:50:09;102069.53;;;8.37;48.05
71666;BME280;59503;53.486;10.196;2023-04-07T07:52:35;102068.78;;;8.53;48.79
71666;BME280;59503;53.486;10.196;2023-04-07T07:55:01;102067.41;;;8.82;47.95
71666;BME280;59503;53.486;10.196;2023-04-07T07:57:26;102069.66;;;9.05;47.30
71666;BME280;59503;53.486;10.196;2023-04-07T07:59:51;102078.59;;;9.40;46.20
71666;BME280;59503;53.486;10.196;2023-04-07T08:02:17;102081.47;;;9.35;45.54
71666;BME280;59503;53.486;10.196;2023-04-07T08:04:43;102077.09;;;9.68;46.30
71666;BME280;59503;53.486;10.196;2023-04-07T08:07:08;102085.72;;;10.33;45.78
71666;BME280;59503;53.486;10.196;2023-04-07T08:09:35;102089.75;;;10.19;44.24
71666;BME280;59503;53.486;10.196;2023-04-07T08:12:00;102086.38;;;10.22;43.29
71666;BME280;59503;53.486;10.196;2023-04-07T08:14:26;102105.22;;;10.27;42.41
71666;BME280;59503;53.486;10.196;2023-04-07T08:16:51;102091.19;;;10.25;42.53
71666;BME280;59503;53.486;10.196;2023-04-07T08:19:17;102089.41;;;9.74;43.09
71666;BME280;59503;53.486;10.196;2023-04-07T08:21:42;102094.66;;;9.70;44.91
71666;BME280;59503;53.486;10.196;2023-04-07T08:24:08;102093.19;;;9.81;44.05
71666;BME280;59503;53.486;10.196;2023-04-07T08:26:34;102087.28;;;9.79;44.64
71666;BME280;59503;53.486;10.196;2023-04-07T08:28:59;102084.47;;;9.59;44.04
71666;BME280;59503;53.486;10.196;2023-04-07T08:31:25;102091.78;;;9.84;44.06
71666;BME280;59503;53.486;10.196;2023-04-07T08:33:50;102093.88;;;10.33;42.69
71666;BME280;59503;53.486;10.196;2023-04-07T08:36:23;102094.63;;;11.12;41.38
71666;BME280;59503;53.486;10.196;2023-04-07T08:38:48;102106.72;;;11.03;40.86
71666;BME280;59503;53.486;10.196;2023-04-07T08:41:19;102098.84;;;10.81;40.92
71666;BME280;59503;53.486;10.196;2023-04-07T08:43:47;102102.13;;;10.95;40.53
71666;BME280;59503;53.486;10.196;2023-04-07T08:46:14;102102.72;;;11.00;40.49
71666;BME280;59503;53.486;10.196;2023-04-07T08:48:42;102104.06;;;11.15;39.88
71666;BME280;59503;53.486;10.196;2023-04-07T08:51:08;102098.94;;;10.93;40.12
71666;BME280;59503;53.486;10.196;2023-04-07T08:54:11;102100.75;;;11.09;39.95
71666;BME280;59503;53.486;10.196;2023-04-07T08:56:38;102093.44;;;11.01;39.89
71666;BME280;59503;53.486;10.196;2023-04-07T08:59:06;102095.66;;;10.79;40.03
71666;BME280;59503;53.486;10.196;2023-04-07T09:01:33;102096.13;;;10.81;40.16
71666;BME280;59503;53.486;10.196;2023-04-07T09:04:01;102101.53;;;11.31;38.79
71666;BME280;59503;53.486;10.196;2023-04-07T09:06:31;102103.66;;;11.04;40.17
71666;BME280;59503;53.486;10.196;2023-04-07T09:08:57;102096.19;;;11.34;39.34
71666;BME280;59503;53.486;10.196;2023-04-07T09:11:26;102097.69;;;11.32;39.45
71666;BME280;59503;53.486;10.196;2023-04-07T09:13:52;102103.53;;;11.21;39.06
71666;BME280;59503;53.486;10.196;2023-04-07T09:16:18;102104.28;;;11.31;39.59
71666;BME280;59503;53.486;10.196;2023-04-07T09:18:44;102107.50;;;11.45;39.02
71666;BME280;59503;53.486;10.196;2023-04-07T09:21:09;102099.84;;;11.59;38.94
71666;BME280;59503;53.486;10.196;2023-04-07T09:23:39;102102.56;;;11.91;39.11
71666;BME280;59503;53.486;10.196;2023-04-07T09:28:45;102094.75;;;12.98;37.07
71666;BME280;59503;53.486;10.196;2023-04-07T09:31:11;102085.97;;;13.17;35.98
71666;BME280;59503;53.486;10.196;2023-04-07T09:33:36;102098.03;;;13.43;34.51
71666;BME280;59503;53.486;10.196;2023-04-07T09:36:03;102093.84;;;13.06;34.77
71666;BME280;59503;53.486;10.196;2023-04-07T09:38:38;102093.84;;;12.82;34.58
71666;BME280;59503;53.486;10.196;2023-04-07T09:41:08;102103.75;;;12.38;35.74
71666;BME280;59503;53.486;10.196;2023-04-07T09:43:35;102090.34;;;12.33;35.75
71666;BME280;59503;53.486;10.196;2023-04-07T09:46:13;102092.28;;;12.21;37.11
71666;BME280;59503;53.486;10.196;2023-04-07T09:48:40;102087.97;;;12.56;36.26
71666;BME280;59503;53.486;10.196;2023-04-07T09:51:08;102085.88;;;12.89;34.63
71666;BME280;59503;53.486;10.196;2023-04-07T09:53:50;102085.63;;;12.94;35.31
71666;BME280;59503;53.486;10.196;2023-04-07T09:56:19;102082.22;;;13.09;34.71
71666;BME280;59503;53.486;10.196;2023-04-07T09:58:49;102087.31;;;13.11;34.41
71666;BME280;59503;53.486;10.196;2023-04-07T10:01:16;102084.72;;;13.02;34.49
71666;BME280;59503;53.486;10.196;2023-04-07T10:03:43;102093.31;;;12.28;35.52
71666;BME280;59503;53.486;10.196;2023-04-07T10:06:08;102094.69;;;12.22;35.80
71666;BME280;59503;53.486;10.196;2023-04-07T10:08:36;102082.72;;;12.15;35.28
71666;BME280;59503;53.486;10.196;2023-04-07T10:11:03;102085.94;;;12.41;35.81
71666;BME280;59503;53.486;10.196;2023-04-07T10:13:30;102094.19;;;12.69;35.34
71666;BME280;59503;53.486;10.196;2023-04-07T10:15:57;102086.00;;;12.81;34.52
71666;BME280;59503;53.486;10.196;2023-04-07T10:18:28;102086.84;;;12.33;36.32
71666;BME280;59503;53.486;10.196;2023-04-07T10:20:55;102096.16;;;12.32;36.43
71666;BME280;59503;53.486;10.196;2023-04-07T10:23:31;102089.13;;;12.31;35.42
71666;BME280;59503;53.486;10.196;2023-04-07T10:25:59;102087.50;;;12.06;35.49
71666;BME280;59503;53.486;10.196;2023-04-07T10:28:26;102093.78;;;11.74;37.22
71666;BME280;59503;53.486;10.196;2023-04-07T10:30:56;102087.03;;;12.04;35.38
71666;BME280;59503;53.486;10.196;2023-04-07T10:33:45;102087.53;;;12.18;35.88
71666;BME280;59503;53.486;10.196;2023-04-07T10:36:11;102083.88;;;12.14;34.80
71666;BME280;59503;53.486;10.196;2023-04-07T10:38:37;102088.19;;;12.39;34.73
71666;BME280;59503;53.486;10.196;2023-04-07T10:43:57;102085.69;;;12.22;35.60
71666;BME280;59503;53.486;10.196;2023-04-07T10:46:22;102084.09;;;12.45;35.36
71666;BME280;59503;53.486;10.196;2023-04-07T10:49:08;102073.66;;;12.59;34.40
71666;BME280;59503;53.486;10.196;2023-04-07T10:51:34;102076.38;;;12.35;35.12
71666;BME280;59503;53.486;10.196;2023-04-07T10:59:28;102074.88;;;11.57;37.92
71666;BME280;59503;53.486;10.196;2023-04-07T11:04:42;102081.41;;;11.76;37.14
71666;BME280;59503;53.486;10.196;2023-04-07T11:07:08;102075.09;;;11.84;37.18
71666;BME280;59503;53.486;10.196;2023-04-07T11:09:34;102080.47;;;12.17;36.91
71666;BME280;59503;53.486;10.196;2023-04-07T11:11:59;102084.56;;;12.47;36.00
71666;BME280;59503;53.486;10.196;2023-04-07T11:14:26;102071.09;;;12.90;35.05
71666;BME280;59503;53.486;10.196;2023-04-07T11:16:52;102079.56;;;13.25;34.22
71666;BME280;59503;53.486;10.196;2023-04-07T11:19:18;102075.13;;;13.48;34.09
71666;BME280;59503;53.486;10.196;2023-04-07T11:21:43;102077.00;;;13.44;33.10
71666;BME280;59503;53.486;10.196;2023-04-07T11:24:09;102082.28;;;13.52;32.72
71666;BME280;59503;53.486;10.196;2023-04-07T11:26:40;102086.34;;;13.58;32.57
71666;BME280;59503;53.486;10.196;2023-04-07T11:29:05;102086.84;;;13.48;31.94
71666;BME280;59503;53.486;10.196;2023-04-07T11:31:32;102071.63;;;13.63;33.19
71666;BME280;59503;53.486;10.196;2023-04-07T11:33:59;102078.41;;;13.53;33.22
71666;BME280;59503;53.486;10.196;2023-04-07T11:36:44;102078.59;;;13.05;33.24
71666;BME280;59503;53.486;10.196;2023-04-07T11:39:19;102066.38;;;13.42;34.29
71666;BME280;59503;53.486;10.196;2023-04-07T11:41:47;102084.34;;;13.71;33.58
71666;BME280;59503;53.486;10.196;2023-04-07T11:44:13;102082.97;;;13.77;33.00
71666;BME280;59503;53.486;10.196;2023-04-07T11:46:59;102088.00;;;13.91;32.81
71666;BME280;59503;53.486;10.196;2023-04-07T11:49:26;102077.50;;;13.77;32.96
71666;BME280;59503;53.486;10.196;2023-04-07T11:52:04;102073.25;;;13.36;33.89
71666;BME280;59503;53.486;10.196;2023-04-07T11:54:43;102080.16;;;13.18;33.35
71666;BME280;59503;53.486;10.196;2023-04-07T11:57:11;102084.50;;;13.07;32.96
71666;BME280;59503;53.486;10.196;2023-04-07T11:59:37;102075.63;;;13.10;31.44
71666;BME280;59503;53.486;10.196;2023-04-07T12:02:03;102081.66;;;13.43;30.19
71666;BME280;59503;53.486;10.196;2023-04-07T12:04:28;102074.84;;;13.96;30.45
71666;BME280;59503;53.486;10.196;2023-04-07T12:07:06;102077.84;;;13.48;31.08
71666;BME280;59503;53.486;10.196;2023-04-07T12:09:33;102077.94;;;13.95;30.78
71666;BME280;59503;53.486;10.196;2023-04-07T12:12:03;102084.06;;;13.60;32.03
71666;BME280;59503;53.486;10.196;2023-04-07T12:14:31;102072.91;;;13.81;31.78
71666;BME280;59503;53.486;10.196;2023-04-07T12:16:56;102081.91;;;13.82;31.16
71666;BME280;59503;53.486;10.196;2023-04-07T12:19:26;102085.63;;;13.89;31.26
71666;BME280;59503;53.486;10.196;2023-04-07T12:21:52;102077.81;;;14.34;29.49
71666;BME280;59503;53.486;10.196;2023-04-07T12:24:18;102090.81;;;14.10;32.31
71666;BME280;59503;53.486;10.196;2023-04-07T12:26:44;102082.78;;;14.01;33.92
71666;BME280;59503;53.486;10.196;2023-04-07T12:29:09;102075.56;;;14.09;34.56
71666;BME280;59503;53.486;10.196;2023-04-07T12:31:35;102073.88;;;14.20;32.88
71666;BME280;59503;53.486;10.196;2023-04-07T12:34:01;102088.19;;;14.60;32.48
71666;BME280;59503;53.486;10.196;2023-04-07T12:36:27;102089.47;;;14.81;33.15
71666;BME280;59503;53.486;10.196;2023-04-07T12:38:53;102085.03;;;15.12;32.14
71666;BME280;59503;53.486;10.196;2023-04-07T12:41:19;102085.31;;;15.07;32.14
71666;BME280;59503;53.486;10.196;2023-04-07T12:43:44;102092.31;;;15.23;31.48
71666;BME280;59503;53.486;10.196;2023-04-07T12:46:10;102085.53;;;15.17;31.91
71666;BME280;59503;53.486;10.196;2023-04-07T12:48:35;102086.47;;;15.63;32.07
71666;BME280;59503;53.486;10.196;2023-04-07T12:51:01;102083.00;;;15.28;32.20
71666;BME280;59503;53.486;10.196;2023-04-07T12:53:27;102081.34;;;14.85;31.28
71666;BME280;59503;53.486;10.196;2023-04-07T12:55:53;102073.84;;;15.01;32.86
71666;BME280;59503;53.486;10.196;2023-04-07T12:58:18;102079.34;;;15.20;32.52
71666;BME280;59503;53.486;10.196;2023-04-07T13:00:44;102080.63;;;15.64;31.37
71666;BME280;59503;53.486;10.196;2023-04-07T13:03:11;102080.34;;;15.31;32.11
71666;BME280;59503;53.486;10.196;2023-04-07T13:05:36;102077.97;;;15.30;31.47